createdAt,value
2018-11-28T00:49:53.788Z,0.20
2018-11-28T00:52:24.307Z,0.00
2018-11-28T00:54:54.712Z,0.00
2018-11-28T00:57:25.173Z,0.00
2018-11-28T00:59:55.645Z,0.00
2018-11-28T01:02:26.136Z,0.10
2018-11-28T01:04:56.597Z,0.00
2018-11-28T01:07:26.991Z,0.00
2018-11-28T01:09:57.434Z,0.00
2018-11-28T01:12:27.919Z,0.00
2018-11-28T01:14:58.210Z,0.00
2018-11-28T01:17:28.705Z,-0.10
2018-11-28T01:19:59.146Z,-0.10
2018-11-28T01:22:29.812Z,-0.10
2018-11-28T01:25:00.312Z,-0.10
2018-11-28T01:27:30.949Z,0.00
2018-11-28T01:30:01.418Z,0.00
2018-11-28T01:35:01.620Z,-0.10
2018-11-28T01:37:32.140Z,-0.10
2018-11-28T01:40:02.472Z,0.00
2018-11-28T01:42:32.935Z,0.00
2018-11-28T01:45:03.375Z,0.00
2018-11-28T01:47:33.793Z,0.10
2018-11-28T01:50:04.296Z,0.00
2018-11-28T01:52:34.637Z,0.00
2018-11-28T01:55:05.743Z,0.10
2018-11-28T01:57:36.341Z,0.10
2018-11-28T02:00:11.189Z,0.10
2018-11-28T02:02:41.716Z,0.10
2018-11-28T02:05:13.211Z,0.20
2018-11-28T02:07:43.697Z,0.20
2018-11-28T02:10:17.101Z,0.20
2018-11-28T02:12:47.453Z,0.20
2018-11-28T02:15:18.690Z,0.30
2018-11-28T02:17:49.048Z,0.30
2018-11-28T02:20:19.525Z,0.20
2018-11-28T02:22:49.900Z,0.20
2018-11-28T02:25:20.305Z,0.20
2018-11-28T02:27:50.987Z,0.20
2018-11-28T02:30:21.757Z,0.20
2018-11-28T02:32:52.229Z,0.20
2018-11-28T02:35:22.722Z,0.20
2018-11-28T02:37:53.164Z,0.10
2018-11-28T02:40:23.689Z,0.10
2018-11-28T02:42:54.049Z,0.10
2018-11-28T02:45:24.501Z,0.10
2018-11-28T02:47:55.020Z,0.10
2018-11-28T02:50:25.532Z,0.10
2018-11-28T02:52:55.964Z,0.10
2018-11-28T02:55:26.454Z,0.10
2018-11-28T02:57:56.753Z,0.10
2018-11-28T03:00:27.753Z,0.20
2018-11-28T03:02:58.297Z,0.10
2018-11-28T03:05:29.033Z,0.20
2018-11-28T03:07:59.513Z,0.10
2018-11-28T03:10:29.967Z,0.20
2018-11-28T03:13:00.396Z,0.10
2018-11-28T03:15:38.730Z,0.10
2018-11-28T03:18:09.568Z,0.10
2018-11-28T03:20:39.886Z,0.10
2018-11-28T03:23:10.524Z,0.10
2018-11-28T03:25:41.185Z,0.10
2018-11-28T03:28:11.643Z,0.10
2018-11-28T03:30:42.114Z,0.00
2018-11-28T03:33:12.489Z,-0.10
2018-11-28T03:35:43.045Z,-0.20
2018-11-28T03:38:13.569Z,-0.20
2018-11-28T03:40:44.012Z,-0.20
2018-11-28T03:43:15.279Z,-0.20
2018-11-28T03:45:45.827Z,-0.20
2018-11-28T03:48:20.414Z,-0.20
2018-11-28T03:50:51.277Z,-0.30
2018-11-28T03:53:21.864Z,-0.30
2018-11-28T03:55:52.333Z,-0.30
2018-11-28T03:58:22.735Z,-0.30
2018-11-28T04:00:53.232Z,-0.40
2018-11-28T04:05:53.140Z,-0.40
2018-11-28T04:08:23.698Z,-0.40
2018-11-28T04:10:54.532Z,-0.40
2018-11-28T04:13:24.956Z,-0.30
2018-11-28T04:15:55.688Z,-0.20
2018-11-28T04:18:26.041Z,-0.20
2018-11-28T04:20:56.465Z,-0.10
2018-11-28T04:23:27.011Z,-0.10
2018-11-28T04:25:57.303Z,-0.10
2018-11-28T04:28:27.859Z,-0.10
2018-11-28T04:30:58.424Z,-0.10
2018-11-28T04:33:28.779Z,-0.20
2018-11-28T04:35:59.213Z,-0.20
2018-11-28T04:38:29.630Z,-0.20
2018-11-28T04:41:00.094Z,-0.20
2018-11-28T04:43:30.456Z,-0.10
2018-11-28T04:46:01.012Z,-0.10
2018-11-28T04:48:31.445Z,-0.10
2018-11-28T04:51:01.803Z,-0.10
2018-11-28T04:53:32.304Z,-0.10
2018-11-28T04:56:02.627Z,-0.10
2018-11-28T04:58:33.015Z,-0.10
2018-11-28T05:01:03.534Z,-0.10
2018-11-28T05:03:33.797Z,-0.10
2018-11-28T05:06:04.210Z,0.00
2018-11-28T05:11:04.174Z,0.00
2018-11-28T05:13:34.581Z,0.00
2018-11-28T05:16:05.040Z,0.00
2018-11-28T05:18:35.536Z,-0.10
2018-11-28T05:21:06.298Z,-0.10
2018-11-28T05:23:36.693Z,-0.10
2018-11-28T05:26:07.804Z,-0.10
2018-11-28T05:28:38.034Z,-0.10
2018-11-28T05:31:08.398Z,-0.20
2018-11-28T05:33:38.782Z,-0.20
2018-11-28T05:36:09.292Z,-0.10
2018-11-28T05:38:39.676Z,-0.10
2018-11-28T05:41:10.112Z,-0.10
2018-11-28T05:43:40.587Z,-0.10
2018-11-28T05:46:10.980Z,-0.10
2018-11-28T05:48:41.212Z,-0.10
2018-11-28T05:51:11.693Z,-0.10
2018-11-28T05:53:42.092Z,-0.10
2018-11-28T05:56:12.843Z,-0.10
2018-11-28T05:58:43.243Z,0.00
2018-11-28T06:01:13.696Z,0.00
2018-11-28T06:03:44.008Z,0.00
2018-11-28T06:06:15.119Z,0.00
2018-11-28T06:08:45.585Z,0.00
2018-11-28T06:11:16.057Z,0.00
2018-11-28T06:13:46.522Z,0.00
2018-11-28T06:16:16.906Z,-0.10
2018-11-28T06:18:47.274Z,-0.10
2018-11-28T06:21:17.750Z,-0.20
2018-11-28T06:23:48.164Z,-0.20
2018-11-28T06:26:18.500Z,-0.20
2018-11-28T06:28:49.856Z,-0.20
2018-11-28T06:31:19.488Z,-0.30
2018-11-28T06:33:49.834Z,-0.30
2018-11-28T06:36:20.211Z,-0.20
2018-11-28T06:38:50.630Z,-0.20
2018-11-28T06:41:21.243Z,-0.20
2018-11-28T06:43:51.669Z,-0.20
2018-11-28T06:46:22.160Z,-0.20
2018-11-28T06:48:52.603Z,-0.10
2018-11-28T06:51:23.528Z,-0.20
2018-11-28T06:53:53.860Z,-0.20
2018-11-28T06:56:24.312Z,-0.20
2018-11-28T06:58:54.971Z,-0.20
2018-11-28T07:01:25.605Z,-0.20
2018-11-28T07:03:56.072Z,-0.20
2018-11-28T07:06:26.464Z,-0.20
2018-11-28T07:08:57.053Z,-0.10
2018-11-28T07:11:27.504Z,-0.10
2018-11-28T07:13:57.984Z,-0.10
2018-11-28T07:16:28.532Z,0.00
2018-11-28T07:19:11.049Z,0.00
2018-11-28T07:24:11.327Z,0.10
2018-11-28T07:26:41.961Z,0.20
2018-11-28T07:29:12.436Z,0.20
2018-11-28T07:31:43.147Z,0.30
2018-11-28T07:34:13.580Z,0.30
2018-11-28T07:36:43.988Z,0.20
2018-11-28T07:39:14.417Z,0.20
2018-11-28T07:41:44.687Z,0.20
2018-11-28T07:44:15.079Z,0.20
2018-11-28T07:46:45.505Z,0.20
2018-11-28T07:49:15.960Z,0.20
2018-11-28T07:51:46.375Z,0.20
2018-11-28T07:54:16.892Z,0.20
2018-11-28T07:56:47.378Z,0.20
2018-11-28T07:59:17.874Z,0.30
2018-11-28T08:01:48.119Z,0.30
2018-11-28T08:04:19.740Z,0.40
2018-11-28T08:09:19.643Z,0.40
2018-11-28T08:11:50.099Z,0.40
2018-11-28T08:14:20.403Z,0.40
2018-11-28T08:16:50.775Z,0.40
2018-11-28T08:19:24.025Z,0.40
2018-11-28T08:21:52.623Z,0.60
2018-11-28T08:26:51.652Z,0.60
2018-11-28T08:29:21.938Z,0.60
2018-11-28T08:31:54.469Z,0.70
2018-11-28T08:34:24.790Z,0.70
2018-11-28T08:36:55.316Z,0.70
2018-11-28T08:39:25.623Z,0.70
2018-11-28T08:41:55.903Z,0.70
2018-11-28T08:44:26.313Z,0.60
2018-11-28T08:46:56.715Z,0.60
2018-11-28T08:49:27.091Z,0.60
2018-11-28T08:51:57.463Z,0.60
2018-11-28T08:54:27.703Z,0.60
2018-11-28T08:56:59.382Z,0.60
2018-11-28T08:59:28.597Z,0.60
2018-11-28T09:01:59.065Z,0.60
2018-11-28T09:04:29.337Z,0.70
2018-11-28T09:06:59.980Z,0.70
2018-11-28T09:09:30.240Z,0.80
2018-11-28T09:12:00.469Z,0.80
2018-11-28T09:14:30.768Z,0.80
2018-11-28T09:17:01.051Z,0.80
2018-11-28T09:19:31.456Z,0.80
2018-11-28T09:22:01.874Z,0.90
2018-11-28T09:24:32.132Z,0.90
2018-11-28T09:27:03.729Z,0.90
2018-11-28T09:32:02.814Z,0.90
2018-11-28T09:34:33.120Z,0.90
2018-11-28T09:37:03.628Z,0.90
2018-11-28T09:39:33.873Z,1.00
2018-11-28T09:42:04.347Z,1.10
2018-11-28T09:44:34.727Z,1.20
2018-11-28T09:47:05.161Z,1.20
2018-11-28T09:49:35.576Z,1.30
2018-11-28T09:52:06.257Z,1.50
2018-11-28T09:54:36.533Z,1.50
2018-11-28T09:57:07.429Z,1.40
2018-11-28T09:59:37.700Z,1.30
2018-11-28T10:04:37.741Z,1.20
2018-11-28T10:07:08.099Z,1.10
2018-11-28T10:09:38.480Z,1.10
2018-11-28T10:12:08.780Z,1.40
2018-11-28T10:14:39.096Z,1.50
2018-11-28T10:17:09.528Z,1.50
2018-11-28T10:19:39.989Z,1.60
2018-11-28T10:24:40.470Z,1.50
2018-11-28T10:27:10.843Z,1.40
2018-11-28T10:29:41.013Z,1.30
2018-11-28T10:32:11.353Z,1.30
2018-11-28T10:34:41.580Z,1.20
2018-11-28T10:37:12.099Z,1.20
2018-11-28T10:39:42.305Z,1.20
2018-11-28T10:42:12.744Z,1.30
2018-11-28T10:44:43.128Z,1.30
2018-11-28T10:47:13.363Z,1.40
2018-11-28T10:49:43.712Z,1.50
2018-11-28T10:52:14.246Z,1.60
2018-11-28T10:54:44.528Z,1.80
2018-11-28T10:57:14.963Z,2.00
2018-11-28T10:59:45.175Z,2.10
2018-11-28T11:02:20.419Z,2.40
2018-11-28T11:04:55.783Z,2.40
2018-11-28T11:07:31.452Z,2.40
2018-11-28T11:10:06.719Z,2.40
2018-11-28T11:12:42.069Z,2.30
2018-11-28T11:15:12.467Z,2.30
2018-11-28T11:17:42.975Z,2.20
2018-11-28T11:20:13.612Z,2.10
2018-11-28T11:22:43.795Z,2.10
2018-11-28T11:25:14.171Z,2.20
2018-11-28T11:27:44.912Z,2.30
2018-11-28T11:30:15.503Z,2.40
2018-11-28T11:32:45.800Z,2.60
2018-11-28T11:35:16.184Z,2.70
2018-11-28T11:37:46.728Z,2.70
2018-11-28T11:40:17.100Z,3.00
2018-11-28T11:42:47.476Z,3.30
2018-11-28T11:45:17.877Z,3.70
2018-11-28T11:47:48.191Z,3.90
2018-11-28T11:50:19.458Z,3.90
2018-11-28T11:52:49.980Z,3.70
2018-11-28T11:55:20.818Z,3.60
2018-11-28T11:57:51.749Z,3.20
2018-11-28T12:00:24.865Z,3.00
2018-11-28T12:03:04.676Z,2.90
2018-11-28T12:05:35.032Z,2.90
2018-11-28T12:08:05.835Z,3.00
2018-11-28T12:10:36.475Z,3.10
2018-11-28T12:13:06.876Z,3.00
2018-11-28T12:15:37.163Z,3.00
2018-11-28T12:18:07.762Z,2.80
2018-11-28T12:20:43.892Z,2.60
2018-11-28T12:23:14.130Z,2.40
2018-11-28T12:25:44.332Z,2.40
2018-11-28T12:28:14.736Z,2.20
2018-11-28T12:30:45.140Z,2.30
2018-11-28T12:33:15.559Z,2.20
2018-11-28T12:35:45.943Z,2.10
2018-11-28T12:38:16.378Z,2.20
2018-11-28T12:40:46.732Z,2.20
2018-11-28T12:43:17.296Z,2.10
2018-11-28T12:45:48.703Z,2.10
2018-11-28T12:48:18.984Z,2.00
2018-11-28T12:50:49.416Z,1.90
2018-11-28T12:53:20.216Z,1.80
2018-11-28T12:55:50.512Z,1.90
2018-11-28T12:58:21.684Z,1.80
2018-11-28T13:00:52.063Z,1.70
2018-11-28T13:03:22.359Z,1.40
2018-11-28T13:05:52.659Z,1.40
2018-11-28T13:08:23.032Z,1.30
2018-11-28T13:10:53.409Z,1.40
2018-11-28T13:13:24.107Z,1.30
2018-11-28T13:15:54.367Z,1.30
2018-11-28T13:18:24.684Z,1.30
2018-11-28T13:20:55.044Z,1.30
2018-11-28T13:23:25.431Z,1.20
2018-11-28T13:25:55.732Z,1.20
2018-11-28T13:28:26.215Z,1.20
2018-11-28T13:30:56.545Z,1.20
2018-11-28T13:33:27.089Z,1.30
2018-11-28T13:35:57.368Z,1.30
2018-11-28T13:38:27.785Z,1.40
2018-11-28T13:40:58.113Z,1.30
2018-11-28T13:43:28.489Z,1.30
2018-11-28T13:45:58.708Z,1.30
2018-11-28T13:48:29.108Z,1.30
2018-11-28T13:50:59.499Z,1.30
2018-11-28T13:53:29.894Z,1.30
2018-11-28T13:58:31.455Z,1.30
2018-11-28T14:01:01.724Z,1.30
2018-11-28T14:03:32.155Z,1.30
2018-11-28T14:06:02.692Z,1.20
2018-11-28T14:08:33.067Z,1.20
2018-11-28T14:11:03.299Z,1.10
2018-11-28T14:13:33.704Z,1.00
2018-11-28T14:16:03.871Z,1.00
2018-11-28T14:18:34.260Z,0.90
2018-11-28T14:21:04.501Z,0.90
2018-11-28T14:23:34.796Z,0.90
2018-11-28T14:26:05.166Z,0.90
2018-11-28T14:28:35.656Z,0.90
2018-11-28T14:31:06.510Z,0.80
2018-11-28T14:33:36.915Z,0.80
2018-11-28T14:36:07.608Z,0.80
2018-11-28T14:41:07.575Z,0.70
2018-11-28T14:43:37.907Z,0.70
2018-11-28T14:48:31.535Z,0.60
2018-11-28T14:51:01.852Z,0.60
2018-11-28T14:53:32.285Z,0.60
2018-11-28T14:58:32.470Z,0.50
2018-11-28T15:01:03.182Z,0.50
2018-11-28T15:03:33.560Z,0.50
2018-11-28T15:06:08.071Z,0.50
2018-11-28T15:08:38.736Z,0.50
2018-11-28T15:13:43.712Z,0.50
2018-11-28T15:16:14.135Z,0.50
2018-11-28T15:18:44.468Z,0.50
2018-11-28T15:21:14.858Z,0.50
2018-11-28T15:23:45.261Z,0.50
2018-11-28T15:26:15.635Z,0.50
2018-11-28T15:28:45.936Z,0.50
2018-11-28T15:31:16.283Z,0.50
2018-11-28T15:33:46.588Z,0.40
2018-11-28T15:36:16.932Z,0.50
2018-11-28T15:38:47.265Z,0.50
2018-11-28T15:41:17.577Z,0.40
2018-11-28T15:43:47.876Z,0.30
2018-11-28T15:46:18.181Z,0.40
2018-11-28T15:48:48.699Z,0.40
2018-11-28T15:51:19.207Z,0.40
2018-11-28T15:53:49.608Z,0.40
2018-11-28T15:56:20.467Z,0.50
2018-11-28T15:58:50.745Z,0.50
2018-11-28T16:01:21.340Z,0.50
2018-11-28T16:03:51.808Z,0.60
2018-11-28T16:06:22.223Z,0.60
2018-11-28T16:08:54.416Z,0.50
2018-11-28T16:11:25.301Z,0.50
2018-11-28T16:13:55.689Z,0.40
2018-11-28T16:16:26.016Z,0.40
2018-11-28T16:18:57.898Z,0.40
2018-11-28T16:21:27.164Z,0.40
2018-11-28T16:23:57.485Z,0.30
2018-11-28T16:26:27.840Z,0.30
2018-11-28T16:28:58.225Z,0.30
2018-11-28T16:33:58.411Z,0.30
2018-11-28T16:36:28.799Z,0.40
2018-11-28T16:38:59.171Z,0.40
2018-11-28T16:41:29.605Z,0.30
2018-11-28T16:43:59.920Z,0.30
2018-11-28T16:46:30.303Z,0.20
2018-11-28T16:49:00.599Z,0.20
2018-11-28T16:51:30.919Z,0.10
2018-11-28T16:54:01.299Z,0.10
2018-11-28T16:56:31.629Z,0.00
2018-11-28T16:59:01.841Z,0.00
2018-11-28T17:01:32.148Z,-0.10
2018-11-28T17:04:02.475Z,-0.10
2018-11-28T17:06:32.813Z,-0.20
2018-11-28T17:09:03.253Z,-0.20
2018-11-28T17:11:33.747Z,-0.40
2018-11-28T17:14:04.152Z,-0.60
2018-11-28T17:16:34.519Z,-0.70
2018-11-28T17:19:04.691Z,-0.80
2018-11-28T17:21:35.134Z,-0.70
2018-11-28T17:24:05.398Z,-0.60
2018-11-28T17:26:35.743Z,-0.50
2018-11-28T17:29:06.263Z,-0.50
2018-11-28T17:31:36.614Z,-0.50
2018-11-28T17:34:06.914Z,-0.50
2018-11-28T17:36:37.426Z,-0.60
2018-11-28T17:39:12.042Z,-0.70
2018-11-28T17:41:42.605Z,-0.80
2018-11-28T17:44:13.051Z,-1.00
2018-11-28T17:46:43.423Z,-1.10
2018-11-28T17:49:13.701Z,-1.20
2018-11-28T17:51:44.116Z,-1.30
2018-11-28T17:54:15.705Z,-1.40
2018-11-28T17:56:44.975Z,-1.50
2018-11-28T17:59:15.247Z,-1.70
2018-11-28T18:01:45.550Z,-1.80
2018-11-28T18:04:15.856Z,-1.80
2018-11-28T18:06:46.305Z,-1.90
2018-11-28T18:09:16.711Z,-1.80
2018-11-28T18:11:47.220Z,-1.80
2018-11-28T18:14:17.816Z,-1.90
2018-11-28T18:16:48.091Z,-2.00
2018-11-28T18:19:18.437Z,-2.20
2018-11-28T18:21:48.684Z,-2.30
2018-11-28T18:24:18.997Z,-2.30
2018-11-28T18:26:49.508Z,-2.30
2018-11-28T18:29:19.838Z,-2.30
2018-11-28T18:31:50.243Z,-2.50
2018-11-28T18:34:20.456Z,-2.70
2018-11-28T18:36:50.692Z,-2.80
2018-11-28T18:39:20.944Z,-2.80
2018-11-28T18:41:51.282Z,-2.90
2018-11-28T18:44:21.681Z,-3.00
2018-11-28T18:46:51.960Z,-3.10
2018-11-28T18:51:52.115Z,-3.20
2018-11-28T18:54:22.671Z,-3.20
2018-11-28T18:56:53.562Z,-3.20
2018-11-28T19:01:53.993Z,-3.10
2018-11-28T19:04:24.373Z,-3.00
2018-11-28T19:06:54.917Z,-3.00
2018-11-28T19:09:30.397Z,-3.00
2018-11-28T19:12:01.032Z,-3.10
2018-11-28T19:14:31.545Z,-3.20
2018-11-28T19:17:02.075Z,-3.20
2018-11-28T19:19:32.688Z,-3.20
2018-11-28T19:22:03.222Z,-3.20
2018-11-28T19:24:34.126Z,-3.30
2018-11-28T19:27:04.757Z,-3.30
2018-11-28T19:29:35.288Z,-3.30
2018-11-28T19:32:07.725Z,-3.20
2018-11-28T19:37:16.285Z,-3.20
2018-11-28T19:39:50.441Z,-3.20
2018-11-28T19:42:27.017Z,-3.40
2018-11-28T19:44:57.584Z,-3.40
2018-11-28T19:47:28.028Z,-3.30
2018-11-28T19:49:58.354Z,-3.30
2018-11-28T19:52:28.623Z,-3.30
2018-11-28T19:54:59.015Z,-3.40
2018-11-28T19:57:29.678Z,-3.40
2018-11-28T20:00:00.207Z,-3.40
2018-11-28T20:02:30.811Z,-3.40
2018-11-28T20:05:01.160Z,-3.60
2018-11-28T20:07:31.645Z,-3.60
2018-11-28T20:10:02.081Z,-3.70
2018-11-28T20:12:32.520Z,-3.60
2018-11-28T20:15:02.954Z,-3.60
2018-11-28T20:17:33.276Z,-3.70
2018-11-28T20:20:03.786Z,-3.80
2018-11-28T20:22:34.272Z,-3.90
2018-11-28T20:25:05.011Z,-3.80
2018-11-28T20:27:35.397Z,-3.80
2018-11-28T20:30:09.448Z,-3.80
2018-11-28T20:32:39.795Z,-3.80
2018-11-28T20:35:10.964Z,-3.70
2018-11-28T20:37:42.183Z,-3.80
2018-11-28T20:40:16.515Z,-3.80
2018-11-28T20:42:48.137Z,-3.80
2018-11-28T20:45:18.725Z,-3.80
2018-11-28T20:47:49.397Z,-3.90
2018-11-28T20:52:54.893Z,-3.80
2018-11-28T20:55:22.355Z,-3.90
2018-11-28T20:57:53.121Z,-3.90
2018-11-28T21:01:48.723Z,-3.90
2018-11-28T21:04:19.364Z,-4.00
2018-11-28T21:09:19.753Z,-4.10
2018-11-28T21:14:20.045Z,-4.00
2018-11-28T21:16:50.508Z,-4.10
2018-11-28T21:21:50.680Z,-4.10
2018-11-28T21:24:21.259Z,-4.00
2018-11-28T21:26:51.552Z,-4.00
2018-11-28T21:29:22.275Z,-4.00
2018-11-28T21:31:52.696Z,-4.10
2018-11-28T21:34:23.288Z,-4.20
2018-11-28T21:36:53.925Z,-4.30
2018-11-28T21:41:54.213Z,-4.40
2018-11-28T21:44:24.711Z,-4.50
2018-11-28T21:46:55.327Z,-4.50
2018-11-28T21:49:25.839Z,-4.60
2018-11-28T21:51:56.291Z,-4.60
2018-11-28T21:54:26.755Z,-4.50
2018-11-28T21:56:57.239Z,-4.40
2018-11-28T21:59:27.983Z,-4.40
2018-11-28T22:04:28.665Z,-4.50
2018-11-28T22:06:59.045Z,-4.60
2018-11-28T22:09:33.554Z,-4.60
2018-11-28T22:12:03.547Z,-4.60
2018-11-28T22:14:34.073Z,-4.60
2018-11-28T22:17:04.568Z,-4.60
2018-11-28T22:19:35.060Z,-4.60
2018-11-28T22:22:05.989Z,-4.60
2018-11-28T22:24:36.291Z,-4.60
2018-11-28T22:27:06.808Z,-4.70
2018-11-28T22:29:37.163Z,-4.60
2018-11-28T22:32:07.527Z,-4.60
2018-11-28T22:34:37.999Z,-4.50
2018-11-28T22:37:08.543Z,-4.50
2018-11-28T22:39:38.907Z,-4.60
2018-11-28T22:44:38.708Z,-4.60
2018-11-28T22:47:09.139Z,-4.60
2018-11-28T22:49:39.835Z,-4.50
2018-11-28T22:52:10.360Z,-4.50
2018-11-28T22:54:40.618Z,-4.50
2018-11-28T22:57:11.056Z,-4.50
2018-11-28T22:59:41.529Z,-4.50
2018-11-28T23:03:15.130Z,-4.50
2018-11-28T23:05:50.195Z,-4.50
2018-11-28T23:08:21.524Z,-4.50
2018-11-28T23:10:52.467Z,-4.50
2018-11-28T23:13:24.331Z,-4.50
2018-11-28T23:15:54.827Z,-4.50
2018-11-28T23:18:25.190Z,-4.50
2018-11-28T23:20:55.724Z,-4.50
2018-11-28T23:23:26.019Z,-4.70
2018-11-28T23:25:56.560Z,-4.80
2018-11-28T23:28:27.022Z,-4.80
2018-11-28T23:30:57.519Z,-4.90
2018-11-28T23:33:28.001Z,-4.80
2018-11-28T23:35:58.295Z,-4.80
2018-11-28T23:38:28.598Z,-4.90
2018-11-28T23:40:59.444Z,-4.90
2018-11-28T23:43:29.851Z,-4.90
2018-11-28T23:46:00.116Z,-4.90
2018-11-28T23:51:00.012Z,-5.00
2018-11-28T23:53:30.491Z,-5.00
2018-11-28T23:58:30.657Z,-4.90
